KCOS/COS METAR and TAF weather

Enter ICAO airport designator
Station Type Date Time Source
KCOS METAR 2021/05/12 01:54 UTC NOAA

KCOS 120154Z 13003KT 10SM FEW006 FEW009 BKN028 04/02 A3029 RMK AO2 RAE16 SLP273 P0000 T00390017


Station Type Date Time Source
KCOS Decoded METAR 2021/05/12 01:54 UTC NOAA

COLORADO SPRINGS MUNI, CO, United States (KCOS) 38-49N 104-43W 1856M
May 11, 2021 - 09:54 PM EDT / 2021.05.12 0154 UTC
Wind: from the SE (130 degrees) at 3 MPH (3 KT):0
Visibility: 10 mile(s):0
Sky conditions: mostly cloudy
Precipitation last hour: A trace
Temperature: 39.0 F (3.9 C)
Dew Point: 35.1 F (1.7 C)
Relative Humidity: 85%
Pressure (altimeter): 30.29 in. Hg (1025 hPa)
ob: KCOS 120154Z 13003KT 10SM FEW006 FEW009 BKN028 04/02 A3029 RMK AO2 RAE16 SLP273 P0000 T00390017
cycle: 2

Station Type Date Time Source
KCOS TAF 2021/05/11 23:45 UTC NOAA

TAF
AMD KCOS 112243Z 1123/1218 12007KT 3SM -DZ BR OVC005
TEMPO 1123/1124 2SM -SN BR
FM120400 12005KT 1SM -DZ BR OVC004
FM121500 17006KT 3SM BR OVC007
TEMPO 1215/1217 1SM BR OVC004

Example: see airport list